Aeroporto :
LOGIN :

Iscrizione | Disclaimer

   EN    FR    IT 

 










Sommario :    VFR   VFR Marginale   IFR   IFR Intensivo   IFR Molto Intensivo
Visibilità : 
Base nubi : 
>= 8 km
>= 3000ft
5 / 8 km
1000 / 3000 ft
1500m / 5 km
500 / 1000 ft
800 / 1500m
200 / 500 ft
< 800m
< 200 ft
Simboli :   Temporali  Nebbia  Neve Forte  Precipitazioni Forti  Vento > 20 kt
SIGMETs :   Varie  Temporali  Ghiacco  Turbolenza  Onda orograficha  Ceneri Vulcaniche







- Altitudine del aeroporto : 1306 ft
- Codice IATA : ACH


LSZR - Alten Rhein

ULTIMO METAR :
  • 221650Z VRB02KT CAVOK 08/05 Q1028 NOSIG RMK N

METARs OBSOLETI :
  • 221620Z 22003KT CAVOK 10/05 Q1028 NOSIG RMK M
  • 221550Z 23003KT CAVOK 12/05 Q1027 NOSIG RMK M
  • 221520Z 27003KT CAVOK 13/05 Q1027 NOSIG RMK L
  • 221450Z 28006KT CAVOK 12/05 Q1027 NOSIG RMK L
  • 221420Z 28007KT CAVOK 12/04 Q1027 NOSIG RMK K
  • 221350Z 28004KT 230V320 CAVOK 12/04 Q1027 NOSIG RMK K

TAF TAF LSZR
Valido dal 22 a 15 ore il 23 a 00 ore UTC


221425Z 2215/2224 28004KT CAVOK
BECMG 2221/2224 9999 SCT070
ATIS : +41 71 858 51 66
Nessun NOTAM noto per questo aeroporto.



MetMap, La meteo Aeronautica in un colpo d'occhio ! - Copyright ORBIFLY Dicembre 2007 - Disclaimer

ORBIFLY MET'MAP TEAM :

Programmazione e sviluppo : Alexandra Zaïnal
Concezione e sviluppo : Baudouin d'Aumeries
Co-Programmazione e sviluppo : Marc-Olivier Méhu
Supporto tecnico e logistico : Manuel Goepfert
Aiuto per la traduzione : Arnaldo La Scala

Contatto : metmap@orbifly.com




FONTI E CREDITI :

   NOAA